sensor_id;sensor_type;location;lat;lon;timestamp;P1;durP1;ratioP1;P2;durP2;ratioP2
4311;SDS011;2169;49.086;9.284;2023-11-19T00:00:47;3.60;;;2.93;;
4311;SDS011;2169;49.086;9.284;2023-11-19T00:03:14;2.10;;;1.97;;
4311;SDS011;2169;49.086;9.284;2023-11-19T00:05:40;2.30;;;2.07;;
4311;SDS011;2169;49.086;9.284;2023-11-19T00:08:09;2.07;;;1.90;;
4311;SDS011;2169;49.086;9.284;2023-11-19T00:10:35;2.30;;;1.67;;
4311;SDS011;2169;49.086;9.284;2023-11-19T00:13:02;2.90;;;2.70;;
4311;SDS011;2169;49.086;9.284;2023-11-19T00:15:29;2.93;;;1.80;;
4311;SDS011;2169;49.086;9.284;2023-11-19T00:17:56;2.50;;;2.40;;
4311;SDS011;2169;49.086;9.284;2023-11-19T00:20:22;1.67;;;1.57;;
4311;SDS011;2169;49.086;9.284;2023-11-19T00:22:49;2.60;;;2.40;;
4311;SDS011;2169;49.086;9.284;2023-11-19T00:25:18;2.60;;;2.50;;
4311;SDS011;2169;49.086;9.284;2023-11-19T00:27:46;2.03;;;1.93;;
4311;SDS011;2169;49.086;9.284;2023-11-19T00:30:13;1.97;;;1.87;;
4311;SDS011;2169;49.086;9.284;2023-11-19T00:32:40;2.50;;;2.27;;
4311;SDS011;2169;49.086;9.284;2023-11-19T00:35:08;3.17;;;2.87;;
4311;SDS011;2169;49.086;9.284;2023-11-19T00:37:36;1.83;;;1.80;;
4311;SDS011;2169;49.086;9.284;2023-11-19T00:40:03;1.30;;;1.30;;
4311;SDS011;2169;49.086;9.284;2023-11-19T00:42:32;2.47;;;2.33;;
4311;SDS011;2169;49.086;9.284;2023-11-19T00:44:58;3.43;;;2.30;;
4311;SDS011;2169;49.086;9.284;2023-11-19T00:47:26;5.07;;;1.93;;
4311;SDS011;2169;49.086;9.284;2023-11-19T00:49:53;1.53;;;1.53;;
4311;SDS011;2169;49.086;9.284;2023-11-19T00:52:20;2.17;;;1.97;;
4311;SDS011;2169;49.086;9.284;2023-11-19T00:54:47;2.20;;;1.43;;
4311;SDS011;2169;49.086;9.284;2023-11-19T00:57:14;1.53;;;1.40;;
4311;SDS011;2169;49.086;9.284;2023-11-19T00:59:42;1.90;;;0.97;;
4311;SDS011;2169;49.086;9.284;2023-11-19T01:02:09;1.70;;;1.57;;
4311;SDS011;2169;49.086;9.284;2023-11-19T01:04:36;1.63;;;1.53;;
4311;SDS011;2169;49.086;9.284;2023-11-19T01:07:03;1.77;;;1.77;;
4311;SDS011;2169;49.086;9.284;2023-11-19T01:09:31;1.40;;;1.40;;
4311;SDS011;2169;49.086;9.284;2023-11-19T01:11:59;1.67;;;1.50;;
4311;SDS011;2169;49.086;9.284;2023-11-19T01:14:26;1.50;;;1.40;;
4311;SDS011;2169;49.086;9.284;2023-11-19T01:16:54;7.53;;;1.40;;
4311;SDS011;2169;49.086;9.284;2023-11-19T01:19:21;1.37;;;1.23;;
4311;SDS011;2169;49.086;9.284;2023-11-19T01:21:49;1.20;;;1.13;;
4311;SDS011;2169;49.086;9.284;2023-11-19T01:24:16;1.30;;;1.30;;
4311;SDS011;2169;49.086;9.284;2023-11-19T01:26:43;1.90;;;1.57;;
4311;SDS011;2169;49.086;9.284;2023-11-19T01:29:10;3.57;;;1.70;;
4311;SDS011;2169;49.086;9.284;2023-11-19T01:31:38;3.23;;;2.20;;
4311;SDS011;2169;49.086;9.284;2023-11-19T01:34:05;6.00;;;2.10;;
4311;SDS011;2169;49.086;9.284;2023-11-19T01:36:32;1.30;;;1.30;;
4311;SDS011;2169;49.086;9.284;2023-11-19T01:38:59;2.60;;;1.87;;
4311;SDS011;2169;49.086;9.284;2023-11-19T01:41:26;1.47;;;1.43;;
4311;SDS011;2169;49.086;9.284;2023-11-19T01:43:53;7.20;;;2.73;;
4311;SDS011;2169;49.086;9.284;2023-11-19T01:46:20;1.87;;;1.77;;
4311;SDS011;2169;49.086;9.284;2023-11-19T01:48:47;3.60;;;2.70;;
4311;SDS011;2169;49.086;9.284;2023-11-19T01:51:15;1.63;;;1.40;;
4311;SDS011;2169;49.086;9.284;2023-11-19T01:53:43;3.50;;;2.30;;
4311;SDS011;2169;49.086;9.284;2023-11-19T01:56:11;2.40;;;2.20;;
4311;SDS011;2169;49.086;9.284;2023-11-19T01:58:40;3.17;;;2.67;;
4311;SDS011;2169;49.086;9.284;2023-11-19T02:01:08;1.57;;;1.47;;
4311;SDS011;2169;49.086;9.284;2023-11-19T02:03:36;2.00;;;1.80;;
4311;SDS011;2169;49.086;9.284;2023-11-19T02:06:03;4.87;;;1.93;;
4311;SDS011;2169;49.086;9.284;2023-11-19T02:08:32;3.10;;;1.50;;
4311;SDS011;2169;49.086;9.284;2023-11-19T02:11:00;5.53;;;2.77;;
4311;SDS011;2169;49.086;9.284;2023-11-19T02:13:27;2.77;;;2.57;;
4311;SDS011;2169;49.086;9.284;2023-11-19T02:15:54;2.10;;;2.00;;
4311;SDS011;2169;49.086;9.284;2023-11-19T02:18:22;1.70;;;1.67;;
4311;SDS011;2169;49.086;9.284;2023-11-19T02:20:52;2.10;;;2.00;;
4311;SDS011;2169;49.086;9.284;2023-11-19T02:23:20;1.87;;;1.70;;
4311;SDS011;2169;49.086;9.284;2023-11-19T02:25:53;2.20;;;2.03;;
4311;SDS011;2169;49.086;9.284;2023-11-19T02:28:37;1.37;;;1.27;;
4311;SDS011;2169;49.086;9.284;2023-11-19T02:31:04;1.80;;;1.70;;
4311;SDS011;2169;49.086;9.284;2023-11-19T02:33:34;2.00;;;1.80;;
4311;SDS011;2169;49.086;9.284;2023-11-19T02:36:01;1.50;;;1.40;;
4311;SDS011;2169;49.086;9.284;2023-11-19T02:38:28;2.50;;;1.80;;
4311;SDS011;2169;49.086;9.284;2023-11-19T02:40:55;1.60;;;1.50;;
4311;SDS011;2169;49.086;9.284;2023-11-19T02:43:22;2.03;;;1.93;;
4311;SDS011;2169;49.086;9.284;2023-11-19T02:45:50;2.87;;;2.60;;
4311;SDS011;2169;49.086;9.284;2023-11-19T02:48:20;2.83;;;2.40;;
4311;SDS011;2169;49.086;9.284;2023-11-19T02:50:47;2.90;;;2.50;;
4311;SDS011;2169;49.086;9.284;2023-11-19T02:53:14;2.13;;;1.93;;
4311;SDS011;2169;49.086;9.284;2023-11-19T02:55:41;2.60;;;2.13;;
4311;SDS011;2169;49.086;9.284;2023-11-19T02:58:13;4.37;;;2.30;;
4311;SDS011;2169;49.086;9.284;2023-11-19T03:00:48;3.73;;;2.37;;
4311;SDS011;2169;49.086;9.284;2023-11-19T03:03:23;3.10;;;2.60;;
4311;SDS011;2169;49.086;9.284;2023-11-19T03:05:55;3.17;;;2.97;;
4311;SDS011;2169;49.086;9.284;2023-11-19T03:08:22;4.10;;;3.80;;
4311;SDS011;2169;49.086;9.284;2023-11-19T03:10:49;6.00;;;3.90;;
4311;SDS011;2169;49.086;9.284;2023-11-19T03:13:16;4.07;;;3.60;;
4311;SDS011;2169;49.086;9.284;2023-11-19T03:15:43;3.57;;;3.13;;
4311;SDS011;2169;49.086;9.284;2023-11-19T03:18:10;4.70;;;4.27;;
4311;SDS011;2169;49.086;9.284;2023-11-19T03:20:39;3.43;;;3.23;;
4311;SDS011;2169;49.086;9.284;2023-11-19T03:23:05;3.40;;;3.03;;
4311;SDS011;2169;49.086;9.284;2023-11-19T03:25:32;2.03;;;1.93;;
4311;SDS011;2169;49.086;9.284;2023-11-19T03:27:59;2.33;;;2.03;;
4311;SDS011;2169;49.086;9.284;2023-11-19T03:30:27;2.00;;;1.90;;
4311;SDS011;2169;49.086;9.284;2023-11-19T03:32:54;2.30;;;2.20;;
4311;SDS011;2169;49.086;9.284;2023-11-19T03:35:20;2.43;;;2.23;;
4311;SDS011;2169;49.086;9.284;2023-11-19T03:37:49;6.83;;;2.00;;
4311;SDS011;2169;49.086;9.284;2023-11-19T03:40:16;1.63;;;1.53;;
4311;SDS011;2169;49.086;9.284;2023-11-19T03:42:44;1.27;;;1.17;;
4311;SDS011;2169;49.086;9.284;2023-11-19T03:45:10;1.67;;;1.67;;
4311;SDS011;2169;49.086;9.284;2023-11-19T03:47:37;1.53;;;1.43;;
4311;SDS011;2169;49.086;9.284;2023-11-19T03:50:05;1.53;;;1.37;;
4311;SDS011;2169;49.086;9.284;2023-11-19T03:52:33;1.83;;;1.73;;
4311;SDS011;2169;49.086;9.284;2023-11-19T03:55:01;1.37;;;1.37;;
4311;SDS011;2169;49.086;9.284;2023-11-19T03:57:28;1.70;;;1.60;;
4311;SDS011;2169;49.086;9.284;2023-11-19T03:59:55;1.67;;;1.57;;
4311;SDS011;2169;49.086;9.284;2023-11-19T04:02:23;1.73;;;1.63;;
4311;SDS011;2169;49.086;9.284;2023-11-19T04:04:52;1.40;;;1.40;;
4311;SDS011;2169;49.086;9.284;2023-11-19T04:07:19;1.83;;;1.73;;
4311;SDS011;2169;49.086;9.284;2023-11-19T04:09:46;1.30;;;1.10;;
4311;SDS011;2169;49.086;9.284;2023-11-19T04:12:14;2.43;;;2.10;;
4311;SDS011;2169;49.086;9.284;2023-11-19T04:14:41;2.10;;;1.90;;
4311;SDS011;2169;49.086;9.284;2023-11-19T04:17:09;1.63;;;1.53;;
4311;SDS011;2169;49.086;9.284;2023-11-19T04:19:35;1.73;;;1.63;;
4311;SDS011;2169;49.086;9.284;2023-11-19T04:22:03;1.63;;;1.40;;
4311;SDS011;2169;49.086;9.284;2023-11-19T04:24:29;2.33;;;1.43;;
4311;SDS011;2169;49.086;9.284;2023-11-19T04:26:56;1.40;;;1.40;;
4311;SDS011;2169;49.086;9.284;2023-11-19T04:29:24;3.63;;;1.37;;
4311;SDS011;2169;49.086;9.284;2023-11-19T04:31:51;1.40;;;1.30;;
4311;SDS011;2169;49.086;9.284;2023-11-19T04:34:18;1.50;;;1.40;;
4311;SDS011;2169;49.086;9.284;2023-11-19T04:36:45;2.20;;;2.10;;
4311;SDS011;2169;49.086;9.284;2023-11-19T04:39:11;5.20;;;1.00;;
4311;SDS011;2169;49.086;9.284;2023-11-19T04:41:46;1.17;;;1.17;;
4311;SDS011;2169;49.086;9.284;2023-11-19T04:44:13;1.70;;;1.67;;
4311;SDS011;2169;49.086;9.284;2023-11-19T04:46:42;2.00;;;1.10;;
4311;SDS011;2169;49.086;9.284;2023-11-19T04:49:09;1.40;;;1.30;;
4311;SDS011;2169;49.086;9.284;2023-11-19T04:51:38;1.60;;;1.50;;
4311;SDS011;2169;49.086;9.284;2023-11-19T04:54:05;1.20;;;1.20;;
4311;SDS011;2169;49.086;9.284;2023-11-19T04:56:33;1.97;;;1.87;;
4311;SDS011;2169;49.086;9.284;2023-11-19T04:59:00;1.30;;;1.30;;
4311;SDS011;2169;49.086;9.284;2023-11-19T05:01:27;1.30;;;1.30;;
4311;SDS011;2169;49.086;9.284;2023-11-19T05:03:55;1.30;;;1.30;;
4311;SDS011;2169;49.086;9.284;2023-11-19T05:06:25;1.70;;;1.60;;
4311;SDS011;2169;49.086;9.284;2023-11-19T05:08:53;1.43;;;1.20;;
4311;SDS011;2169;49.086;9.284;2023-11-19T05:11:20;2.00;;;1.90;;
4311;SDS011;2169;49.086;9.284;2023-11-19T05:13:46;2.40;;;1.70;;
4311;SDS011;2169;49.086;9.284;2023-11-19T05:16:13;2.50;;;1.60;;
4311;SDS011;2169;49.086;9.284;2023-11-19T05:18:40;2.40;;;2.20;;
4311;SDS011;2169;49.086;9.284;2023-11-19T05:21:08;1.80;;;1.70;;
4311;SDS011;2169;49.086;9.284;2023-11-19T05:23:35;3.57;;;2.00;;
4311;SDS011;2169;49.086;9.284;2023-11-19T05:26:02;1.57;;;1.47;;
4311;SDS011;2169;49.086;9.284;2023-11-19T05:28:29;1.50;;;1.50;;
4311;SDS011;2169;49.086;9.284;2023-11-19T05:30:55;1.40;;;1.30;;
4311;SDS011;2169;49.086;9.284;2023-11-19T05:33:23;1.27;;;1.17;;
4311;SDS011;2169;49.086;9.284;2023-11-19T05:35:50;2.17;;;1.10;;
4311;SDS011;2169;49.086;9.284;2023-11-19T05:38:18;1.60;;;1.50;;
4311;SDS011;2169;49.086;9.284;2023-11-19T05:40:46;1.37;;;1.27;;
4311;SDS011;2169;49.086;9.284;2023-11-19T05:43:14;0.97;;;0.90;;
4311;SDS011;2169;49.086;9.284;2023-11-19T05:45:41;1.27;;;1.27;;
4311;SDS011;2169;49.086;9.284;2023-11-19T05:48:08;0.93;;;0.93;;
4311;SDS011;2169;49.086;9.284;2023-11-19T05:50:35;0.90;;;0.90;;
4311;SDS011;2169;49.086;9.284;2023-11-19T05:53:02;1.60;;;1.60;;
4311;SDS011;2169;49.086;9.284;2023-11-19T05:55:33;0.70;;;0.70;;
4311;SDS011;2169;49.086;9.284;2023-11-19T05:58:01;1.17;;;1.07;;
4311;SDS011;2169;49.086;9.284;2023-11-19T06:00:28;0.70;;;0.70;;
4311;SDS011;2169;49.086;9.284;2023-11-19T06:02:55;2.00;;;0.90;;
4311;SDS011;2169;49.086;9.284;2023-11-19T06:05:22;0.70;;;0.70;;
4311;SDS011;2169;49.086;9.284;2023-11-19T06:07:49;0.80;;;0.80;;
4311;SDS011;2169;49.086;9.284;2023-11-19T06:10:16;0.90;;;0.77;;
4311;SDS011;2169;49.086;9.284;2023-11-19T06:12:45;0.93;;;0.90;;
4311;SDS011;2169;49.086;9.284;2023-11-19T06:15:12;1.10;;;1.10;;
4311;SDS011;2169;49.086;9.284;2023-11-19T06:17:39;0.60;;;0.60;;
4311;SDS011;2169;49.086;9.284;2023-11-19T06:20:06;1.00;;;1.00;;
4311;SDS011;2169;49.086;9.284;2023-11-19T06:22:34;0.80;;;0.80;;
4311;SDS011;2169;49.086;9.284;2023-11-19T06:25:01;0.77;;;0.77;;
4311;SDS011;2169;49.086;9.284;2023-11-19T06:27:32;0.70;;;0.70;;
4311;SDS011;2169;49.086;9.284;2023-11-19T06:30:00;0.90;;;0.90;;
4311;SDS011;2169;49.086;9.284;2023-11-19T06:32:27;7.93;;;0.90;;
4311;SDS011;2169;49.086;9.284;2023-11-19T06:34:54;0.80;;;0.80;;
4311;SDS011;2169;49.086;9.284;2023-11-19T06:37:21;0.70;;;0.70;;
4311;SDS011;2169;49.086;9.284;2023-11-19T06:39:48;0.70;;;0.70;;
4311;SDS011;2169;49.086;9.284;2023-11-19T06:42:15;2.33;;;0.80;;
4311;SDS011;2169;49.086;9.284;2023-11-19T06:44:42;2.67;;;0.70;;
4311;SDS011;2169;49.086;9.284;2023-11-19T06:47:10;0.73;;;0.73;;
4311;SDS011;2169;49.086;9.284;2023-11-19T06:49:37;0.50;;;0.50;;
4311;SDS011;2169;49.086;9.284;2023-11-19T06:52:04;2.20;;;0.83;;
4311;SDS011;2169;49.086;9.284;2023-11-19T06:54:31;3.50;;;0.70;;
4311;SDS011;2169;49.086;9.284;2023-11-19T06:56:58;0.63;;;0.63;;
4311;SDS011;2169;49.086;9.284;2023-11-19T06:59:24;1.02;;;0.43;;
4311;SDS011;2169;49.086;9.284;2023-11-19T07:01:51;0.80;;;0.80;;
4311;SDS011;2169;49.086;9.284;2023-11-19T07:04:19;1.10;;;1.10;;
4311;SDS011;2169;49.086;9.284;2023-11-19T07:06:46;0.87;;;0.87;;
4311;SDS011;2169;49.086;9.284;2023-11-19T07:09:13;2.50;;;0.70;;
4311;SDS011;2169;49.086;9.284;2023-11-19T07:11:40;1.07;;;1.00;;
4311;SDS011;2169;49.086;9.284;2023-11-19T07:14:09;0.63;;;0.63;;
4311;SDS011;2169;49.086;9.284;2023-11-19T07:16:36;0.80;;;0.80;;
4311;SDS011;2169;49.086;9.284;2023-11-19T07:19:03;1.83;;;0.90;;
4311;SDS011;2169;49.086;9.284;2023-11-19T07:21:32;1.00;;;0.80;;
4311;SDS011;2169;49.086;9.284;2023-11-19T07:23:59;0.70;;;0.70;;
4311;SDS011;2169;49.086;9.284;2023-11-19T07:26:26;1.83;;;0.60;;
4311;SDS011;2169;49.086;9.284;2023-11-19T07:28:53;1.37;;;1.07;;
4311;SDS011;2169;49.086;9.284;2023-11-19T07:31:20;4.13;;;1.33;;
4311;SDS011;2169;49.086;9.284;2023-11-19T07:33:48;0.70;;;0.70;;
4311;SDS011;2169;49.086;9.284;2023-11-19T07:36:16;0.60;;;0.60;;
4311;SDS011;2169;49.086;9.284;2023-11-19T07:38:45;0.90;;;0.90;;
4311;SDS011;2169;49.086;9.284;2023-11-19T07:41:11;1.60;;;1.50;;
4311;SDS011;2169;49.086;9.284;2023-11-19T07:43:38;2.43;;;1.13;;
4311;SDS011;2169;49.086;9.284;2023-11-19T07:46:09;1.47;;;1.37;;
4311;SDS011;2169;49.086;9.284;2023-11-19T07:48:38;0.80;;;0.80;;
4311;SDS011;2169;49.086;9.284;2023-11-19T07:51:04;1.03;;;0.80;;
4311;SDS011;2169;49.086;9.284;2023-11-19T07:53:31;3.67;;;2.30;;
4311;SDS011;2169;49.086;9.284;2023-11-19T07:56:00;1.60;;;1.60;;
4311;SDS011;2169;49.086;9.284;2023-11-19T07:58:27;2.60;;;1.70;;
4311;SDS011;2169;49.086;9.284;2023-11-19T08:00:54;1.33;;;1.33;;
4311;SDS011;2169;49.086;9.284;2023-11-19T08:03:20;1.37;;;1.33;;
4311;SDS011;2169;49.086;9.284;2023-11-19T08:05:48;2.23;;;2.13;;
4311;SDS011;2169;49.086;9.284;2023-11-19T08:08:15;1.67;;;1.03;;
4311;SDS011;2169;49.086;9.284;2023-11-19T08:10:41;2.50;;;2.30;;
4311;SDS011;2169;49.086;9.284;2023-11-19T08:13:10;1.17;;;0.87;;
4311;SDS011;2169;49.086;9.284;2023-11-19T08:15:37;1.00;;;0.90;;
4311;SDS011;2169;49.086;9.284;2023-11-19T08:18:05;1.73;;;1.63;;
4311;SDS011;2169;49.086;9.284;2023-11-19T08:20:32;1.50;;;1.30;;
4311;SDS011;2169;49.086;9.284;2023-11-19T08:22:59;2.47;;;2.00;;
4311;SDS011;2169;49.086;9.284;2023-11-19T08:25:26;1.93;;;1.10;;
4311;SDS011;2169;49.086;9.284;2023-11-19T08:27:53;0.70;;;0.70;;
4311;SDS011;2169;49.086;9.284;2023-11-19T08:30:21;0.80;;;0.80;;
4311;SDS011;2169;49.086;9.284;2023-11-19T08:32:47;1.07;;;0.70;;
4311;SDS011;2169;49.086;9.284;2023-11-19T08:35:14;0.70;;;0.70;;
4311;SDS011;2169;49.086;9.284;2023-11-19T08:37:41;1.00;;;1.00;;
4311;SDS011;2169;49.086;9.284;2023-11-19T08:40:10;0.90;;;0.90;;
4311;SDS011;2169;49.086;9.284;2023-11-19T08:42:37;1.63;;;1.47;;
4311;SDS011;2169;49.086;9.284;2023-11-19T08:45:04;4.50;;;2.93;;
4311;SDS011;2169;49.086;9.284;2023-11-19T08:47:33;2.03;;;1.80;;
4311;SDS011;2169;49.086;9.284;2023-11-19T08:50:00;4.37;;;2.17;;
4311;SDS011;2169;49.086;9.284;2023-11-19T08:52:27;6.77;;;2.43;;
4311;SDS011;2169;49.086;9.284;2023-11-19T08:54:53;1.40;;;1.30;;
4311;SDS011;2169;49.086;9.284;2023-11-19T08:57:21;3.07;;;1.40;;
4311;SDS011;2169;49.086;9.284;2023-11-19T08:59:47;6.07;;;1.87;;
4311;SDS011;2169;49.086;9.284;2023-11-19T09:02:14;7.30;;;0.90;;
4311;SDS011;2169;49.086;9.284;2023-11-19T09:04:42;0.90;;;0.90;;
4311;SDS011;2169;49.086;9.284;2023-11-19T09:07:09;1.73;;;0.80;;
4311;SDS011;2169;49.086;9.284;2023-11-19T09:09:36;1.00;;;1.00;;
4311;SDS011;2169;49.086;9.284;2023-11-19T09:12:03;1.33;;;1.13;;
4311;SDS011;2169;49.086;9.284;2023-11-19T09:14:30;0.83;;;0.83;;
4311;SDS011;2169;49.086;9.284;2023-11-19T09:16:57;2.80;;;0.70;;
4311;SDS011;2169;49.086;9.284;2023-11-19T09:19:24;3.13;;;0.60;;
4311;SDS011;2169;49.086;9.284;2023-11-19T09:21:53;2.47;;;0.90;;
4311;SDS011;2169;49.086;9.284;2023-11-19T09:24:19;2.77;;;0.90;;
4311;SDS011;2169;49.086;9.284;2023-11-19T09:26:46;1.10;;;1.00;;
4311;SDS011;2169;49.086;9.284;2023-11-19T09:29:13;1.03;;;1.00;;
4311;SDS011;2169;49.086;9.284;2023-11-19T09:31:40;2.03;;;0.80;;
4311;SDS011;2169;49.086;9.284;2023-11-19T09:34:07;2.30;;;0.70;;
4311;SDS011;2169;49.086;9.284;2023-11-19T09:36:33;0.70;;;0.70;;
4311;SDS011;2169;49.086;9.284;2023-11-19T09:39:02;0.80;;;0.80;;
4311;SDS011;2169;49.086;9.284;2023-11-19T09:41:29;0.70;;;0.70;;
4311;SDS011;2169;49.086;9.284;2023-11-19T09:43:57;2.43;;;0.70;;
4311;SDS011;2169;49.086;9.284;2023-11-19T09:46:23;0.70;;;0.70;;
4311;SDS011;2169;49.086;9.284;2023-11-19T09:48:52;1.67;;;0.80;;
4311;SDS011;2169;49.086;9.284;2023-11-19T09:51:20;1.17;;;1.03;;
4311;SDS011;2169;49.086;9.284;2023-11-19T09:53:48;1.17;;;0.70;;
4311;SDS011;2169;49.086;9.284;2023-11-19T09:56:16;0.60;;;0.60;;
4311;SDS011;2169;49.086;9.284;2023-11-19T09:58:44;1.83;;;0.80;;
4311;SDS011;2169;49.086;9.284;2023-11-19T10:01:11;0.80;;;0.80;;
4311;SDS011;2169;49.086;9.284;2023-11-19T10:03:39;2.20;;;0.60;;
4311;SDS011;2169;49.086;9.284;2023-11-19T10:06:09;0.90;;;0.90;;
4311;SDS011;2169;49.086;9.284;2023-11-19T10:08:36;1.77;;;1.33;;
4311;SDS011;2169;49.086;9.284;2023-11-19T10:11:04;0.87;;;0.53;;
4311;SDS011;2169;49.086;9.284;2023-11-19T10:13:33;0.80;;;0.80;;
4311;SDS011;2169;49.086;9.284;2023-11-19T10:16:03;0.80;;;0.80;;
4311;SDS011;2169;49.086;9.284;2023-11-19T10:18:33;0.60;;;0.60;;
4311;SDS011;2169;49.086;9.284;2023-11-19T10:21:03;1.63;;;0.70;;
4311;SDS011;2169;49.086;9.284;2023-11-19T10:23:30;5.53;;;0.80;;
4311;SDS011;2169;49.086;9.284;2023-11-19T10:26:01;0.60;;;0.60;;
4311;SDS011;2169;49.086;9.284;2023-11-19T10:28:39;0.60;;;0.60;;
4311;SDS011;2169;49.086;9.284;2023-11-19T10:31:08;1.70;;;0.77;;
4311;SDS011;2169;49.086;9.284;2023-11-19T10:33:35;0.67;;;0.67;;
4311;SDS011;2169;49.086;9.284;2023-11-19T10:36:01;1.33;;;1.10;;
4311;SDS011;2169;49.086;9.284;2023-11-19T10:38:28;0.93;;;0.83;;
4311;SDS011;2169;49.086;9.284;2023-11-19T10:40:55;2.60;;;0.80;;
4311;SDS011;2169;49.086;9.284;2023-11-19T10:43:23;0.73;;;0.73;;
4311;SDS011;2169;49.086;9.284;2023-11-19T10:45:51;0.80;;;0.80;;
4311;SDS011;2169;49.086;9.284;2023-11-19T10:48:18;8.47;;;0.60;;
4311;SDS011;2169;49.086;9.284;2023-11-19T10:50:46;0.70;;;0.70;;
4311;SDS011;2169;49.086;9.284;2023-11-19T10:53:19;0.70;;;0.70;;
4311;SDS011;2169;49.086;9.284;2023-11-19T10:55:51;0.60;;;0.60;;
4311;SDS011;2169;49.086;9.284;2023-11-19T10:58:19;2.30;;;0.90;;
4311;SDS011;2169;49.086;9.284;2023-11-19T11:00:47;0.70;;;0.70;;
4311;SDS011;2169;49.086;9.284;2023-11-19T11:03:19;1.03;;;0.73;;
4311;SDS011;2169;49.086;9.284;2023-11-19T11:05:48;3.67;;;1.43;;
4311;SDS011;2169;49.086;9.284;2023-11-19T11:08:15;1.23;;;1.23;;
4311;SDS011;2169;49.086;9.284;2023-11-19T11:10:43;11.50;;;1.60;;
4311;SDS011;2169;49.086;9.284;2023-11-19T11:13:11;1.80;;;1.07;;
4311;SDS011;2169;49.086;9.284;2023-11-19T11:15:40;0.87;;;0.87;;
4311;SDS011;2169;49.086;9.284;2023-11-19T11:18:09;6.87;;;1.10;;
4311;SDS011;2169;49.086;9.284;2023-11-19T11:20:36;0.77;;;0.77;;
4311;SDS011;2169;49.086;9.284;2023-11-19T11:26:08;1.03;;;0.80;;
4311;SDS011;2169;49.086;9.284;2023-11-19T11:28:56;0.60;;;0.60;;
4311;SDS011;2169;49.086;9.284;2023-11-19T11:31:30;2.47;;;0.60;;
4311;SDS011;2169;49.086;9.284;2023-11-19T11:34:07;0.90;;;0.90;;
4311;SDS011;2169;49.086;9.284;2023-11-19T11:36:53;2.10;;;1.20;;
4311;SDS011;2169;49.086;9.284;2023-11-19T11:39:34;4.10;;;1.10;;
4311;SDS011;2169;49.086;9.284;2023-11-19T11:45:00;4.00;;;1.10;;
4311;SDS011;2169;49.086;9.284;2023-11-19T11:50:31;0.70;;;0.70;;
4311;SDS011;2169;49.086;9.284;2023-11-19T11:53:14;0.80;;;0.70;;
4311;SDS011;2169;49.086;9.284;2023-11-19T11:55:57;0.87;;;0.80;;
4311;SDS011;2169;49.086;9.284;2023-11-19T11:58:29;1.73;;;0.80;;
4311;SDS011;2169;49.086;9.284;2023-11-19T12:00:58;3.93;;;0.70;;
4311;SDS011;2169;49.086;9.284;2023-11-19T12:03:27;1.10;;;1.10;;
4311;SDS011;2169;49.086;9.284;2023-11-19T12:05:56;0.60;;;0.60;;
4311;SDS011;2169;49.086;9.284;2023-11-19T12:08:25;5.30;;;0.80;;
4311;SDS011;2169;49.086;9.284;2023-11-19T12:10:53;2.40;;;0.80;;
4311;SDS011;2169;49.086;9.284;2023-11-19T12:13:23;0.50;;;0.50;;
4311;SDS011;2169;49.086;9.284;2023-11-19T12:16:09;14.00;;;0.80;;
4311;SDS011;2169;49.086;9.284;2023-11-19T12:18:38;1.37;;;0.60;;
4311;SDS011;2169;49.086;9.284;2023-11-19T12:21:15;0.50;;;0.50;;
4311;SDS011;2169;49.086;9.284;2023-11-19T12:24:03;0.93;;;0.60;;
4311;SDS011;2169;49.086;9.284;2023-11-19T12:26:38;0.60;;;0.60;;
4311;SDS011;2169;49.086;9.284;2023-11-19T12:29:06;3.87;;;0.70;;
4311;SDS011;2169;49.086;9.284;2023-11-19T12:31:33;3.97;;;0.80;;
4311;SDS011;2169;49.086;9.284;2023-11-19T12:34:09;0.60;;;0.60;;
4311;SDS011;2169;49.086;9.284;2023-11-19T12:36:40;0.57;;;0.57;;
4311;SDS011;2169;49.086;9.284;2023-11-19T12:39:07;1.07;;;0.70;;
4311;SDS011;2169;49.086;9.284;2023-11-19T12:41:53;0.80;;;0.80;;
4311;SDS011;2169;49.086;9.284;2023-11-19T12:44:20;1.80;;;1.33;;
4311;SDS011;2169;49.086;9.284;2023-11-19T12:46:58;1.47;;;0.70;;
4311;SDS011;2169;49.086;9.284;2023-11-19T12:49:26;0.90;;;0.70;;
4311;SDS011;2169;49.086;9.284;2023-11-19T12:51:54;0.83;;;0.70;;
4311;SDS011;2169;49.086;9.284;2023-11-19T12:54:31;2.83;;;0.67;;
4311;SDS011;2169;49.086;9.284;2023-11-19T12:56:58;0.80;;;0.80;;
4311;SDS011;2169;49.086;9.284;2023-11-19T12:59:25;0.60;;;0.60;;
4311;SDS011;2169;49.086;9.284;2023-11-19T13:01:55;1.70;;;0.80;;
4311;SDS011;2169;49.086;9.284;2023-11-19T13:04:22;0.70;;;0.70;;
4311;SDS011;2169;49.086;9.284;2023-11-19T13:06:50;3.60;;;0.70;;
4311;SDS011;2169;49.086;9.284;2023-11-19T13:09:24;4.40;;;2.43;;
4311;SDS011;2169;49.086;9.284;2023-11-19T13:11:51;11.20;;;5.40;;
4311;SDS011;2169;49.086;9.284;2023-11-19T13:14:18;6.80;;;2.37;;
4311;SDS011;2169;49.086;9.284;2023-11-19T13:16:45;7.23;;;4.33;;
4311;SDS011;2169;49.086;9.284;2023-11-19T13:19:12;8.67;;;2.67;;
4311;SDS011;2169;49.086;9.284;2023-11-19T13:21:41;5.50;;;2.43;;
4311;SDS011;2169;49.086;9.284;2023-11-19T13:24:09;1.47;;;1.37;;
4311;SDS011;2169;49.086;9.284;2023-11-19T13:26:37;3.13;;;2.50;;
4311;SDS011;2169;49.086;9.284;2023-11-19T13:29:04;0.93;;;0.70;;
4311;SDS011;2169;49.086;9.284;2023-11-19T13:31:31;0.80;;;0.80;;
4311;SDS011;2169;49.086;9.284;2023-11-19T13:33:58;1.33;;;0.80;;
4311;SDS011;2169;49.086;9.284;2023-11-19T13:36:24;0.70;;;0.70;;
4311;SDS011;2169;49.086;9.284;2023-11-19T13:38:51;0.80;;;0.80;;
4311;SDS011;2169;49.086;9.284;2023-11-19T13:41:23;0.60;;;0.60;;
4311;SDS011;2169;49.086;9.284;2023-11-19T13:43:52;0.60;;;0.60;;
4311;SDS011;2169;49.086;9.284;2023-11-19T13:46:18;6.73;;;0.77;;
4311;SDS011;2169;49.086;9.284;2023-11-19T13:48:46;1.17;;;0.63;;
4311;SDS011;2169;49.086;9.284;2023-11-19T13:51:17;18.77;;;1.07;;
4311;SDS011;2169;49.086;9.284;2023-11-19T13:53:44;0.60;;;0.60;;
4311;SDS011;2169;49.086;9.284;2023-11-19T13:56:11;0.97;;;0.60;;
4311;SDS011;2169;49.086;9.284;2023-11-19T13:58:37;0.80;;;0.57;;
4311;SDS011;2169;49.086;9.284;2023-11-19T14:01:06;0.80;;;0.80;;
4311;SDS011;2169;49.086;9.284;2023-11-19T14:03:34;3.40;;;0.70;;
4311;SDS011;2169;49.086;9.284;2023-11-19T14:06:00;2.20;;;0.97;;
4311;SDS011;2169;49.086;9.284;2023-11-19T14:08:27;1.73;;;0.90;;
4311;SDS011;2169;49.086;9.284;2023-11-19T14:10:54;0.87;;;0.70;;
4311;SDS011;2169;49.086;9.284;2023-11-19T14:13:21;0.60;;;0.60;;
4311;SDS011;2169;49.086;9.284;2023-11-19T14:15:48;0.60;;;0.60;;
4311;SDS011;2169;49.086;9.284;2023-11-19T14:18:17;1.17;;;0.70;;
4311;SDS011;2169;49.086;9.284;2023-11-19T14:20:44;1.40;;;0.60;;
4311;SDS011;2169;49.086;9.284;2023-11-19T14:23:11;4.20;;;0.70;;
4311;SDS011;2169;49.086;9.284;2023-11-19T14:25:38;1.77;;;0.70;;
4311;SDS011;2169;49.086;9.284;2023-11-19T14:28:05;1.30;;;1.20;;
4311;SDS011;2169;49.086;9.284;2023-11-19T14:30:32;0.60;;;0.60;;
4311;SDS011;2169;49.086;9.284;2023-11-19T14:32:59;1.70;;;0.90;;
4311;SDS011;2169;49.086;9.284;2023-11-19T14:35:27;4.40;;;2.33;;
4311;SDS011;2169;49.086;9.284;2023-11-19T14:37:55;4.40;;;2.87;;
4311;SDS011;2169;49.086;9.284;2023-11-19T14:40:21;10.47;;;3.60;;
4311;SDS011;2169;49.086;9.284;2023-11-19T14:42:48;3.97;;;2.10;;
4311;SDS011;2169;49.086;9.284;2023-11-19T14:45:15;4.10;;;2.00;;
4311;SDS011;2169;49.086;9.284;2023-11-19T14:47:42;1.00;;;0.90;;
4311;SDS011;2169;49.086;9.284;2023-11-19T14:50:09;1.17;;;1.07;;
4311;SDS011;2169;49.086;9.284;2023-11-19T14:52:38;1.67;;;1.57;;
4311;SDS011;2169;49.086;9.284;2023-11-19T14:55:05;2.50;;;1.03;;
4311;SDS011;2169;49.086;9.284;2023-11-19T14:57:32;1.20;;;0.87;;
4311;SDS011;2169;49.086;9.284;2023-11-19T15:00:01;4.23;;;0.90;;
4311;SDS011;2169;49.086;9.284;2023-11-19T15:02:37;1.10;;;1.00;;
4311;SDS011;2169;49.086;9.284;2023-11-19T15:05:04;0.70;;;0.70;;
4311;SDS011;2169;49.086;9.284;2023-11-19T15:07:31;0.83;;;0.80;;
4311;SDS011;2169;49.086;9.284;2023-11-19T15:10:00;3.57;;;1.10;;
4311;SDS011;2169;49.086;9.284;2023-11-19T15:12:27;7.10;;;0.70;;
4311;SDS011;2169;49.086;9.284;2023-11-19T15:14:54;0.73;;;0.73;;
4311;SDS011;2169;49.086;9.284;2023-11-19T15:17:21;1.43;;;0.90;;
4311;SDS011;2169;49.086;9.284;2023-11-19T15:19:48;0.90;;;0.70;;
4311;SDS011;2169;49.086;9.284;2023-11-19T15:22:14;3.23;;;0.70;;
4311;SDS011;2169;49.086;9.284;2023-11-19T15:24:42;6.50;;;0.63;;
4311;SDS011;2169;49.086;9.284;2023-11-19T15:27:10;0.80;;;0.70;;
4311;SDS011;2169;49.086;9.284;2023-11-19T15:29:37;0.80;;;0.80;;